createdAt,value
2022-11-26T00:01:16.563Z,11.80
2022-11-26T00:06:35.087Z,11.48
2022-11-26T00:09:04.006Z,10.23
2022-11-26T00:11:30.766Z,10.60
2022-11-26T00:13:57.530Z,8.15
2022-11-26T00:16:24.317Z,7.75
2022-11-26T00:18:51.116Z,7.80
2022-11-26T00:21:24.838Z,9.77
2022-11-26T00:23:52.788Z,8.43
2022-11-26T00:26:21.943Z,10.65
2022-11-26T00:28:55.217Z,11.20
2022-11-26T00:31:23.285Z,9.13
2022-11-26T00:33:50.241Z,9.00
2022-11-26T00:36:31.997Z,8.27
2022-11-26T00:38:58.647Z,9.90
2022-11-26T00:41:29.430Z,7.55
2022-11-26T00:43:56.181Z,11.13
2022-11-26T00:46:23.116Z,9.88
2022-11-26T00:48:50.218Z,11.00
2022-11-26T00:51:20.242Z,15.63
2022-11-26T00:53:47.804Z,13.38
2022-11-26T00:56:20.590Z,12.10
2022-11-26T00:58:48.562Z,12.55
2022-11-26T01:01:21.117Z,14.73
2022-11-26T01:03:48.171Z,14.05
2022-11-26T01:06:24.200Z,12.80
2022-11-26T01:08:51.258Z,10.70
2022-11-26T01:11:20.294Z,9.82
2022-11-26T01:13:49.371Z,11.77
2022-11-26T01:16:28.863Z,10.18
2022-11-26T01:18:59.761Z,9.17
2022-11-26T01:21:28.833Z,8.13
2022-11-26T01:23:56.278Z,9.95
2022-11-26T01:26:32.330Z,6.35
2022-11-26T01:28:59.120Z,10.75
2022-11-26T01:31:28.488Z,8.45
2022-11-26T01:33:55.877Z,7.45
2022-11-26T01:36:25.604Z,6.80
2022-11-26T01:38:54.229Z,9.55
2022-11-26T01:41:49.566Z,7.38
2022-11-26T01:44:19.995Z,8.25
2022-11-26T01:46:47.717Z,7.30
2022-11-26T01:49:30.991Z,9.57
2022-11-26T01:52:14.429Z,8.18
2022-11-26T01:54:43.399Z,6.60
2022-11-26T01:57:13.202Z,6.72
2022-11-26T01:59:42.511Z,8.10
2022-11-26T02:02:09.371Z,7.68
2022-11-26T02:04:41.418Z,7.32
2022-11-26T02:07:08.148Z,7.28
2022-11-26T02:09:35.290Z,7.07
2022-11-26T02:12:02.299Z,8.13
2022-11-26T02:14:40.571Z,9.05
2022-11-26T02:17:23.284Z,9.82
2022-11-26T02:20:09.070Z,5.45
2022-11-26T02:22:57.730Z,8.23
2022-11-26T02:26:02.122Z,5.57
2022-11-26T02:28:50.440Z,8.18
2022-11-26T02:31:32.617Z,7.20
2022-11-26T02:34:26.477Z,7.28
2022-11-26T02:39:29.982Z,5.25
2022-11-26T02:42:00.104Z,6.63
2022-11-26T02:44:38.766Z,5.47
2022-11-26T02:47:11.096Z,6.88
2022-11-26T02:49:39.424Z,5.85
2022-11-26T02:52:07.689Z,10.32
2022-11-26T02:54:36.791Z,5.43
2022-11-26T02:57:07.258Z,7.53
2022-11-26T03:02:14.674Z,6.65
2022-11-26T03:07:12.980Z,5.10
2022-11-26T03:09:52.464Z,7.93
2022-11-26T03:12:19.433Z,6.20
2022-11-26T03:14:46.562Z,6.75
2022-11-26T03:17:14.110Z,7.38
2022-11-26T03:19:41.161Z,7.80
2022-11-26T03:22:08.522Z,13.68
2022-11-26T03:24:35.889Z,7.00
2022-11-26T03:27:02.744Z,9.82
2022-11-26T03:29:29.632Z,9.38
2022-11-26T03:31:56.480Z,10.18
2022-11-26T03:34:23.405Z,8.52
2022-11-26T03:36:50.321Z,8.57
2022-11-26T03:39:17.164Z,9.25
2022-11-26T03:41:44.291Z,8.27
2022-11-26T03:44:12.232Z,9.95
2022-11-26T03:46:39.284Z,9.90
2022-11-26T03:49:06.558Z,7.30
2022-11-26T03:51:33.729Z,9.32
2022-11-26T03:54:00.403Z,6.70
2022-11-26T03:56:27.322Z,7.00
2022-11-26T03:58:54.146Z,9.15
2022-11-26T04:01:21.094Z,11.15
2022-11-26T04:03:47.971Z,7.78
2022-11-26T04:06:14.900Z,5.15
2022-11-26T04:08:41.782Z,7.20
2022-11-26T04:11:08.637Z,8.55
2022-11-26T04:13:35.662Z,9.30
2022-11-26T04:16:02.694Z,8.23
2022-11-26T04:18:29.495Z,8.23
2022-11-26T04:20:56.229Z,7.78
2022-11-26T04:23:22.993Z,9.65
2022-11-26T04:25:49.779Z,8.70
2022-11-26T04:28:16.535Z,9.82
2022-11-26T04:30:43.855Z,9.48
2022-11-26T04:33:10.906Z,6.65
2022-11-26T04:35:37.883Z,7.95
2022-11-26T04:38:04.693Z,7.18
2022-11-26T04:40:31.742Z,9.93
2022-11-26T04:42:58.629Z,8.50
2022-11-26T04:45:25.338Z,6.72
2022-11-26T04:47:52.072Z,7.57
2022-11-26T04:50:19.371Z,8.23
2022-11-26T04:52:48.472Z,8.23
2022-11-26T04:55:16.223Z,7.63
2022-11-26T04:57:43.272Z,7.13
2022-11-26T05:00:11.183Z,7.40
2022-11-26T05:02:37.956Z,9.77
2022-11-26T05:05:04.911Z,7.30
2022-11-26T05:07:31.777Z,6.88
2022-11-26T05:09:58.695Z,8.25
2022-11-26T05:12:25.881Z,8.60
2022-11-26T05:14:52.610Z,7.72
2022-11-26T05:17:19.294Z,8.63
2022-11-26T05:19:46.143Z,10.05
2022-11-26T05:22:12.993Z,7.97
2022-11-26T05:24:40.018Z,9.30
2022-11-26T05:27:06.896Z,8.68
2022-11-26T05:29:33.681Z,8.70
2022-11-26T05:32:00.545Z,8.32
2022-11-26T05:34:27.308Z,9.40
2022-11-26T05:36:54.067Z,9.77
2022-11-26T05:39:21.200Z,7.25
2022-11-26T05:41:48.413Z,7.70
2022-11-26T05:44:15.106Z,8.50
2022-11-26T05:46:42.954Z,9.52
2022-11-26T05:49:10.554Z,7.80
2022-11-26T05:51:37.234Z,8.52
2022-11-26T05:54:04.302Z,11.77
2022-11-26T05:56:31.006Z,10.45
2022-11-26T05:58:57.719Z,8.57
2022-11-26T06:01:24.579Z,12.25
2022-11-26T06:03:51.376Z,9.55
2022-11-26T06:06:18.181Z,11.40
2022-11-26T06:08:44.887Z,8.88
2022-11-26T06:11:13.412Z,10.48
2022-11-26T06:13:40.367Z,12.10
2022-11-26T06:16:07.823Z,10.45
2022-11-26T06:18:36.356Z,8.02
2022-11-26T06:21:04.944Z,11.10
2022-11-26T06:23:32.788Z,10.02
2022-11-26T06:25:59.795Z,11.10
2022-11-26T06:28:26.781Z,9.30
2022-11-26T06:30:53.490Z,7.72
2022-11-26T06:33:20.169Z,7.88
2022-11-26T06:35:46.867Z,14.88
2022-11-26T06:38:13.563Z,11.32
2022-11-26T06:40:40.256Z,12.73
2022-11-26T06:43:06.968Z,10.60
2022-11-26T06:45:35.036Z,10.52
2022-11-26T06:48:01.863Z,12.75
2022-11-26T06:50:28.555Z,7.88
2022-11-26T06:52:56.121Z,9.20
2022-11-26T06:55:22.862Z,12.02
2022-11-26T06:57:51.441Z,8.93
2022-11-26T07:00:18.600Z,11.10
2022-11-26T07:02:45.374Z,10.98
2022-11-26T07:05:12.190Z,8.95
2022-11-26T07:07:40.169Z,13.43
2022-11-26T07:10:07.835Z,9.73
2022-11-26T07:12:34.561Z,9.70
2022-11-26T07:15:01.347Z,13.65
2022-11-26T07:17:28.896Z,7.75
2022-11-26T07:19:55.763Z,6.85
2022-11-26T07:22:22.540Z,8.43
2022-11-26T07:24:49.317Z,8.20
2022-11-26T07:27:16.047Z,9.07
2022-11-26T07:29:42.805Z,9.35
2022-11-26T07:32:09.620Z,5.65
2022-11-26T07:34:36.590Z,5.47
2022-11-26T07:37:03.507Z,7.88
2022-11-26T07:39:30.391Z,7.25
2022-11-26T07:41:57.064Z,4.75
2022-11-26T07:44:23.950Z,6.32
2022-11-26T07:46:50.676Z,6.78
2022-11-26T07:49:17.355Z,6.07
2022-11-26T07:51:44.162Z,5.47
2022-11-26T07:54:10.896Z,4.97
2022-11-26T07:56:37.659Z,6.72
2022-11-26T07:59:04.790Z,4.40
2022-11-26T08:01:32.398Z,5.65
2022-11-26T08:04:00.791Z,8.02
2022-11-26T08:06:30.309Z,7.97
2022-11-26T08:08:59.454Z,4.47
2022-11-26T08:11:28.308Z,3.45
2022-11-26T08:13:57.706Z,6.03
2022-11-26T08:16:26.790Z,5.57
2022-11-26T08:19:00.546Z,4.85
2022-11-26T08:21:27.758Z,5.32
2022-11-26T08:23:54.872Z,5.38
2022-11-26T08:26:27.546Z,4.30
2022-11-26T08:29:00.566Z,5.43
2022-11-26T08:31:28.184Z,7.07
2022-11-26T08:34:02.875Z,4.47
2022-11-26T08:36:31.177Z,6.40
2022-11-26T08:38:59.339Z,4.65
2022-11-26T08:41:26.665Z,4.57
2022-11-26T08:44:08.915Z,5.97
2022-11-26T08:46:41.068Z,5.25
2022-11-26T08:49:10.911Z,5.32
2022-11-26T08:51:37.629Z,5.28
2022-11-26T08:54:04.942Z,10.55
2022-11-26T08:56:31.746Z,6.32
2022-11-26T08:58:58.491Z,6.10
2022-11-26T09:01:30.629Z,4.78
2022-11-26T09:03:59.563Z,6.78
2022-11-26T09:06:29.035Z,5.70
2022-11-26T09:09:14.758Z,5.13
2022-11-26T09:11:51.546Z,4.63
2022-11-26T09:14:22.839Z,6.05
2022-11-26T09:16:49.630Z,5.15
2022-11-26T09:19:17.118Z,5.35
2022-11-26T09:21:45.761Z,5.38
2022-11-26T09:24:13.459Z,7.30
2022-11-26T09:26:41.087Z,7.72
2022-11-26T09:29:07.819Z,6.03
2022-11-26T09:31:34.544Z,7.10
2022-11-26T09:34:02.378Z,6.30
2022-11-26T09:36:29.663Z,6.13
2022-11-26T09:38:57.831Z,6.93
2022-11-26T09:41:42.290Z,6.15
2022-11-26T09:44:22.156Z,5.78
2022-11-26T09:47:12.436Z,6.55
2022-11-26T09:50:10.889Z,5.40
2022-11-26T09:52:52.699Z,4.43
2022-11-26T09:55:27.679Z,4.60
2022-11-26T09:57:59.220Z,7.05
2022-11-26T10:00:30.279Z,7.35
2022-11-26T10:02:57.757Z,6.40
2022-11-26T10:05:40.316Z,5.78
2022-11-26T10:08:28.069Z,6.10
2022-11-26T10:11:03.966Z,5.72
2022-11-26T10:14:07.021Z,6.07
2022-11-26T10:16:58.134Z,6.97
2022-11-26T10:19:35.239Z,6.82
2022-11-26T10:22:13.729Z,7.80
2022-11-26T10:24:42.436Z,7.78
2022-11-26T10:27:18.411Z,7.25
2022-11-26T10:30:22.101Z,6.57
2022-11-26T10:32:52.916Z,9.98
2022-11-26T10:35:24.416Z,6.13
2022-11-26T10:38:04.932Z,6.07
2022-11-26T10:40:45.654Z,10.15
2022-11-26T10:43:22.888Z,9.02
2022-11-26T10:45:52.729Z,9.50
2022-11-26T10:48:33.674Z,10.13
2022-11-26T10:51:26.349Z,6.57
2022-11-26T10:53:57.874Z,9.60
2022-11-26T10:56:47.094Z,11.15
2022-11-26T10:59:55.615Z,9.35
2022-11-26T11:02:43.395Z,6.75
2022-11-26T11:05:12.978Z,11.23
2022-11-26T11:10:28.603Z,11.13
2022-11-26T11:13:19.667Z,13.85
2022-11-26T11:16:07.269Z,12.73
2022-11-26T11:18:37.490Z,13.68
2022-11-26T11:21:08.503Z,13.05
2022-11-26T11:24:09.461Z,12.63
2022-11-26T11:26:45.759Z,15.68
2022-11-26T11:29:37.894Z,13.15
2022-11-26T11:32:51.562Z,14.93
2022-11-26T11:35:27.029Z,13.93
2022-11-26T11:37:56.328Z,12.40
2022-11-26T11:40:30.748Z,12.02
2022-11-26T11:43:04.248Z,15.30
2022-11-26T11:45:41.330Z,13.48
2022-11-26T11:48:33.824Z,11.52
2022-11-26T11:51:38.708Z,12.18
2022-11-26T11:54:39.211Z,13.75
2022-11-26T11:57:30.314Z,12.30
2022-11-26T12:00:19.536Z,16.83
2022-11-26T12:03:23.071Z,17.20
2022-11-26T12:06:19.474Z,13.93
2022-11-26T12:09:14.252Z,13.20
2022-11-26T12:12:17.704Z,14.07
2022-11-26T12:15:11.426Z,10.50
2022-11-26T12:17:54.858Z,13.65
2022-11-26T12:20:22.283Z,12.32
2022-11-26T12:23:24.374Z,12.50
2022-11-26T12:26:21.995Z,10.15
2022-11-26T12:28:56.284Z,13.43
2022-11-26T12:31:51.494Z,12.00
2022-11-26T12:34:56.072Z,13.32
2022-11-26T12:37:56.862Z,13.95
2022-11-26T12:40:51.395Z,14.40
2022-11-26T12:43:45.412Z,14.60
2022-11-26T12:47:00.353Z,13.40
2022-11-26T12:50:26.204Z,14.23
2022-11-26T12:53:05.056Z,12.38
2022-11-26T12:55:51.354Z,16.05
2022-11-26T12:58:32.919Z,14.52
2022-11-26T13:00:59.727Z,16.58
2022-11-26T13:03:33.648Z,15.98
2022-11-26T13:06:27.978Z,12.15
2022-11-26T13:09:10.039Z,15.70
2022-11-26T13:12:10.781Z,15.65
2022-11-26T13:14:48.734Z,11.98
2022-11-26T13:17:18.347Z,9.88
2022-11-26T13:19:47.590Z,12.90
2022-11-26T13:22:29.185Z,11.27
2022-11-26T13:24:58.681Z,11.43
2022-11-26T13:28:03.097Z,12.23
2022-11-26T13:30:47.378Z,12.27
2022-11-26T13:33:16.961Z,13.38
2022-11-26T13:35:49.610Z,15.23
2022-11-26T13:38:31.422Z,10.90
2022-11-26T13:41:17.150Z,12.55
2022-11-26T13:44:06.829Z,12.10
2022-11-26T13:46:48.421Z,10.10
2022-11-26T13:49:30.195Z,8.98
2022-11-26T13:52:10.430Z,12.20
2022-11-26T13:54:37.497Z,13.90
2022-11-26T13:57:19.526Z,14.70
2022-11-26T13:59:56.074Z,11.10
2022-11-26T14:02:44.391Z,11.57
2022-11-26T14:05:14.521Z,11.65
2022-11-26T14:07:42.567Z,13.35
2022-11-26T14:10:35.852Z,10.77
2022-11-26T14:13:02.732Z,14.52
2022-11-26T14:15:41.818Z,9.85
2022-11-26T14:18:17.062Z,10.77
2022-11-26T14:21:01.892Z,12.95
2022-11-26T14:23:46.411Z,9.63
2022-11-26T14:26:22.112Z,11.20
2022-11-26T14:28:48.846Z,10.68
2022-11-26T14:31:25.281Z,10.82
2022-11-26T14:33:56.026Z,8.85
2022-11-26T14:36:28.416Z,9.05
2022-11-26T14:41:23.054Z,7.00
2022-11-26T14:44:05.968Z,9.32
2022-11-26T14:46:32.703Z,11.15
2022-11-26T14:49:00.374Z,11.60
2022-11-26T14:51:28.144Z,6.93
2022-11-26T14:53:56.455Z,8.77
2022-11-26T14:56:25.219Z,8.98
2022-11-26T14:58:55.195Z,17.08
2022-11-26T15:01:26.597Z,11.02
2022-11-26T15:03:57.107Z,11.82
2022-11-26T15:06:30.470Z,16.38
2022-11-26T15:09:20.114Z,19.80
2022-11-26T15:12:07.018Z,14.55
2022-11-26T15:14:54.552Z,11.55
2022-11-26T15:17:23.997Z,12.18
2022-11-26T15:19:53.116Z,11.67
2022-11-26T15:22:38.124Z,9.15
2022-11-26T15:25:06.679Z,14.60
2022-11-26T15:27:39.478Z,11.23
2022-11-26T15:30:19.906Z,11.15
2022-11-26T15:32:46.678Z,11.25
2022-11-26T15:35:15.350Z,12.95
2022-11-26T15:37:42.362Z,13.00
2022-11-26T15:40:24.212Z,10.40
2022-11-26T15:42:57.958Z,12.07
2022-11-26T15:45:55.625Z,14.32
2022-11-26T15:48:51.397Z,11.05
2022-11-26T15:51:35.553Z,15.55
2022-11-26T15:54:04.820Z,15.52
2022-11-26T15:56:36.381Z,15.23
2022-11-26T15:59:13.701Z,14.60
2022-11-26T16:01:44.743Z,14.10
2022-11-26T16:04:33.493Z,18.00
2022-11-26T16:07:21.032Z,16.92
2022-11-26T16:09:49.784Z,16.20
2022-11-26T16:12:31.157Z,14.38
2022-11-26T16:15:16.882Z,11.05
2022-11-26T16:17:44.135Z,12.93
2022-11-26T16:20:21.598Z,14.65
2022-11-26T16:22:50.902Z,15.25
2022-11-26T16:25:36.587Z,28.73
2022-11-26T16:28:14.391Z,19.92
2022-11-26T16:30:44.037Z,23.58
2022-11-26T16:33:11.079Z,18.75
2022-11-26T16:35:46.453Z,17.85
2022-11-26T16:38:25.201Z,19.10
2022-11-26T16:40:52.805Z,17.48
2022-11-26T16:43:20.156Z,16.30
2022-11-26T16:45:48.434Z,26.75
2022-11-26T16:48:26.588Z,22.83
2022-11-26T16:50:56.465Z,25.85
2022-11-26T16:53:23.480Z,20.20
2022-11-26T16:55:51.062Z,19.63
2022-11-26T16:58:29.732Z,19.25
2022-11-26T17:00:57.231Z,17.42
2022-11-26T17:03:25.547Z,19.45
2022-11-26T17:05:55.309Z,14.73
2022-11-26T17:08:23.123Z,12.40
2022-11-26T17:10:51.203Z,16.25
2022-11-26T17:13:18.382Z,16.40
2022-11-26T17:15:45.546Z,16.27
2022-11-26T17:18:23.889Z,19.58
2022-11-26T17:20:51.768Z,22.38
2022-11-26T17:23:19.082Z,18.80
2022-11-26T17:25:49.610Z,24.77
2022-11-26T17:28:16.503Z,18.33
2022-11-26T17:30:44.723Z,30.05
2022-11-26T17:33:12.001Z,18.58
2022-11-26T17:35:39.214Z,15.10
2022-11-26T17:38:18.281Z,21.55
2022-11-26T17:40:46.210Z,18.55
2022-11-26T17:43:13.377Z,15.63
2022-11-26T17:45:41.210Z,16.70
2022-11-26T17:48:12.124Z,16.27
2022-11-26T17:50:39.280Z,15.82
2022-11-26T17:53:06.026Z,24.38
2022-11-26T17:55:32.825Z,20.35
2022-11-26T17:57:59.550Z,20.45
2022-11-26T18:00:28.480Z,22.80
2022-11-26T18:02:55.622Z,28.88
2022-11-26T18:05:22.630Z,22.38
2022-11-26T18:07:52.368Z,21.17
2022-11-26T18:10:21.022Z,19.15
2022-11-26T18:12:48.777Z,23.25
2022-11-26T18:15:24.028Z,18.05
2022-11-26T18:17:53.804Z,17.70
2022-11-26T18:20:23.443Z,20.92
2022-11-26T18:22:55.723Z,19.42
2022-11-26T18:25:22.951Z,26.98
2022-11-26T18:27:49.834Z,28.77
2022-11-26T18:30:18.550Z,19.17
2022-11-26T18:32:45.294Z,76.15
2022-11-26T18:35:12.191Z,16.65
2022-11-26T18:37:40.549Z,16.92
2022-11-26T18:40:10.057Z,19.30
2022-11-26T18:42:38.148Z,15.75
2022-11-26T18:45:07.762Z,25.92
2022-11-26T18:47:34.551Z,33.78
2022-11-26T18:50:01.249Z,16.73
2022-11-26T18:52:27.947Z,21.20
2022-11-26T18:54:54.703Z,20.27
2022-11-26T18:57:21.459Z,19.52
2022-11-26T18:59:50.420Z,30.85
2022-11-26T19:02:17.447Z,56.40
2022-11-26T19:04:44.222Z,16.48
2022-11-26T19:07:12.640Z,21.35
2022-11-26T19:09:39.716Z,19.00
2022-11-26T19:12:06.785Z,15.15
2022-11-26T19:14:33.461Z,14.73
2022-11-26T19:17:00.637Z,19.27
2022-11-26T19:19:28.132Z,14.15
2022-11-26T19:22:01.012Z,17.58
2022-11-26T19:24:29.075Z,19.70
2022-11-26T19:26:56.309Z,21.55
2022-11-26T19:29:23.128Z,22.95
2022-11-26T19:31:49.833Z,30.63
2022-11-26T19:34:16.876Z,18.17
2022-11-26T19:36:48.104Z,16.65
2022-11-26T19:39:15.949Z,16.20
2022-11-26T19:41:43.189Z,15.27
2022-11-26T19:44:09.989Z,17.92
2022-11-26T19:46:40.592Z,17.70
2022-11-26T19:49:07.982Z,19.67
2022-11-26T19:51:34.733Z,38.53
2022-11-26T19:54:01.586Z,15.32
2022-11-26T19:56:32.298Z,16.35
2022-11-26T19:59:01.957Z,16.95
2022-11-26T20:01:34.066Z,32.03
2022-11-26T20:04:03.645Z,32.28
2022-11-26T20:06:32.237Z,14.30
2022-11-26T20:08:59.247Z,15.23
2022-11-26T20:11:27.272Z,15.05
2022-11-26T20:13:54.414Z,15.43
2022-11-26T20:16:23.799Z,15.65
2022-11-26T20:18:51.133Z,19.60
2022-11-26T20:21:22.347Z,17.42
2022-11-26T20:23:50.585Z,18.23
2022-11-26T20:26:26.364Z,14.00
2022-11-26T20:28:53.752Z,14.98
2022-11-26T20:31:24.273Z,20.65
2022-11-26T20:33:52.887Z,17.63
2022-11-26T20:36:22.715Z,15.93
2022-11-26T20:38:54.153Z,15.68
2022-11-26T20:41:21.300Z,15.68
2022-11-26T20:43:48.071Z,15.27
2022-11-26T20:46:15.267Z,16.95
2022-11-26T20:48:43.853Z,13.90
2022-11-26T20:51:14.016Z,15.43
2022-11-26T20:56:09.239Z,11.52
2022-11-26T20:58:36.313Z,13.73
2022-11-26T21:01:03.285Z,13.07
2022-11-26T21:03:30.970Z,15.15
2022-11-26T21:06:02.089Z,13.40
2022-11-26T21:08:28.906Z,16.90
2022-11-26T21:10:55.625Z,15.90
2022-11-26T21:13:22.897Z,13.93
2022-11-26T21:15:49.617Z,12.25
2022-11-26T21:18:16.817Z,13.05
2022-11-26T21:20:44.355Z,13.73
2022-11-26T21:23:12.540Z,14.30
2022-11-26T21:25:41.853Z,11.25
2022-11-26T21:28:10.580Z,10.87
2022-11-26T21:30:38.708Z,13.88
2022-11-26T21:33:09.212Z,11.93
2022-11-26T21:35:37.061Z,14.55
2022-11-26T21:38:05.025Z,11.10
2022-11-26T21:40:32.264Z,12.52
2022-11-26T21:42:59.058Z,15.52
2022-11-26T21:45:27.505Z,22.67
2022-11-26T21:47:54.236Z,12.65
2022-11-26T21:50:20.966Z,14.90
2022-11-26T21:52:47.736Z,16.63
2022-11-26T21:55:14.606Z,13.15
2022-11-26T21:57:41.350Z,11.43
2022-11-26T22:00:09.230Z,11.77
2022-11-26T22:02:36.106Z,13.52
2022-11-26T22:05:02.887Z,14.25
2022-11-26T22:07:30.612Z,17.83
2022-11-26T22:09:57.649Z,26.25
2022-11-26T22:12:24.408Z,17.70
2022-11-26T22:14:51.301Z,12.55
2022-11-26T22:17:18.017Z,13.77
2022-11-26T22:19:44.805Z,12.57
2022-11-26T22:22:11.605Z,15.25
2022-11-26T22:24:38.290Z,14.88
2022-11-26T22:27:05.047Z,19.15
2022-11-26T22:29:31.812Z,11.50
2022-11-26T22:31:58.485Z,15.45
2022-11-26T22:34:27.307Z,11.00
2022-11-26T22:36:54.001Z,10.95
2022-11-26T22:39:20.728Z,13.20
2022-11-26T22:41:48.341Z,13.95
2022-11-26T22:44:15.913Z,10.27
2022-11-26T22:46:42.747Z,13.27
2022-11-26T22:49:15.665Z,13.35
2022-11-26T22:51:42.462Z,13.15
2022-11-26T22:54:12.858Z,13.93
2022-11-26T22:56:39.703Z,12.23
2022-11-26T22:59:08.226Z,13.30
2022-11-26T23:01:36.444Z,11.43
2022-11-26T23:04:05.760Z,12.65
2022-11-26T23:06:34.183Z,12.03
2022-11-26T23:09:03.287Z,12.23
2022-11-26T23:11:32.994Z,11.75
2022-11-26T23:13:59.730Z,12.75
2022-11-26T23:16:27.200Z,12.32
2022-11-26T23:18:55.886Z,11.23
2022-11-26T23:21:25.120Z,12.75
2022-11-26T23:23:52.206Z,12.50
2022-11-26T23:26:26.388Z,11.10
2022-11-26T23:28:55.104Z,13.10
2022-11-26T23:31:25.031Z,13.50
2022-11-26T23:33:52.276Z,15.98
2022-11-26T23:36:20.407Z,10.15
2022-11-26T23:38:47.670Z,12.45
2022-11-26T23:41:15.145Z,11.63
2022-11-26T23:43:42.062Z,12.07
2022-11-26T23:46:14.166Z,11.82
2022-11-26T23:48:41.344Z,10.10
2022-11-26T23:51:10.359Z,13.05
2022-11-26T23:53:38.831Z,11.40
2022-11-26T23:56:08.139Z,11.90
2022-11-26T23:58:34.906Z,11.97
